Surface Preassure
0:00 UTC
12:00 UTC (Click for larger versions)
Andrewsfield Outlook

Current time:


  04:13:53pm (GMT)      04:13:53pm (UTC)


Headline: Mainly dry. Sunny spells, warm on Thursday.

This Evening and Tonight: Any showers will clear away this evening with some late sunny intervals. Overnight, it will be dry with clear periods and light winds, leading to a rather humid night. Minimum Temperature 14C.

Thursday: An often sunny day is forecast with isolated showers and mainly light winds. Feeling warm, locally very warm inland, but somewhat fresher near the coast where onshore breezes develop. Maximum Temperature 26C.

Outlook for Friday to Sunday: Cloud and light rain, mainly on hills on Friday, warmer, sunnier in south. Warm or very warm over the weekend with variable cloud and occasional sunshine, and mainly dry.

Forecast

Weather warnings

Nearby METAR/TAF

Stansted (EGSS)


Current conditions: VFR

METAR: EGSS 181550Z AUTO 18004KT 140V240 9999 NCD 24/09 Q1018

TAF: TAF EGSS 181058Z 1812/1918 VRB03KT 9999 SCT040 PROB30 1902/1907 8000

Southend (EGMC)


Current conditions: VFR

METAR: EGMC 181550Z 11008KT 080V140 CAVOK 24/09 Q1018

TAF: TAF EGMC 181402Z 1815/1824 12007KT CAVOK

RAF Wattisham (EGUW)


Current conditions: VFR

METAR: EGUW 181550Z 10004KT CAVOK 24/06 Q1018 BLU NOSIG

TAF: TAF EGUW 181336Z 1815/1824 27002KT CAVOK